sensor_id;sensor_type;location;lat;lon;timestamp;P1;durP1;ratioP1;P2;durP2;ratioP2
21128;SDS011;10722;51.910;8.352;2024-01-15T00:01:12;48.13;;;23.50;;
21128;SDS011;10722;51.910;8.352;2024-01-15T00:03:58;50.67;;;25.83;;
21128;SDS011;10722;51.910;8.352;2024-01-15T00:06:44;50.17;;;25.80;;
21128;SDS011;10722;51.910;8.352;2024-01-15T00:09:29;44.50;;;24.97;;
21128;SDS011;10722;51.910;8.352;2024-01-15T00:12:14;46.93;;;23.90;;
21128;SDS011;10722;51.910;8.352;2024-01-15T00:14:59;41.97;;;21.23;;
21128;SDS011;10722;51.910;8.352;2024-01-15T00:17:45;41.83;;;21.73;;
21128;SDS011;10722;51.910;8.352;2024-01-15T00:20:31;41.83;;;22.03;;
21128;SDS011;10722;51.910;8.352;2024-01-15T00:23:16;43.00;;;21.00;;
21128;SDS011;10722;51.910;8.352;2024-01-15T00:26:01;37.20;;;17.30;;
21128;SDS011;10722;51.910;8.352;2024-01-15T00:28:46;40.87;;;19.47;;
21128;SDS011;10722;51.910;8.352;2024-01-15T00:31:31;41.53;;;19.43;;
21128;SDS011;10722;51.910;8.352;2024-01-15T00:34:16;32.80;;;16.43;;
21128;SDS011;10722;51.910;8.352;2024-01-15T00:37:02;36.07;;;16.50;;
21128;SDS011;10722;51.910;8.352;2024-01-15T00:39:47;33.80;;;15.80;;
21128;SDS011;10722;51.910;8.352;2024-01-15T00:42:32;31.30;;;15.83;;
21128;SDS011;10722;51.910;8.352;2024-01-15T00:45:17;30.10;;;14.90;;
21128;SDS011;10722;51.910;8.352;2024-01-15T00:48:02;28.03;;;14.50;;
21128;SDS011;10722;51.910;8.352;2024-01-15T00:50:49;29.80;;;14.73;;
21128;SDS011;10722;51.910;8.352;2024-01-15T00:53:34;30.80;;;14.83;;
21128;SDS011;10722;51.910;8.352;2024-01-15T00:56:19;31.07;;;15.40;;
21128;SDS011;10722;51.910;8.352;2024-01-15T00:59:04;30.43;;;14.90;;
21128;SDS011;10722;51.910;8.352;2024-01-15T01:01:49;31.77;;;14.33;;
21128;SDS011;10722;51.910;8.352;2024-01-15T01:04:34;29.67;;;16.17;;
21128;SDS011;10722;51.910;8.352;2024-01-15T01:07:19;31.03;;;14.83;;
21128;SDS011;10722;51.910;8.352;2024-01-15T01:10:04;30.47;;;14.83;;
21128;SDS011;10722;51.910;8.352;2024-01-15T01:12:49;29.67;;;15.10;;
21128;SDS011;10722;51.910;8.352;2024-01-15T01:15:35;34.90;;;16.10;;
21128;SDS011;10722;51.910;8.352;2024-01-15T01:18:20;29.63;;;15.07;;
21128;SDS011;10722;51.910;8.352;2024-01-15T01:21:06;33.97;;;16.00;;
21128;SDS011;10722;51.910;8.352;2024-01-15T01:23:51;30.30;;;14.63;;
21128;SDS011;10722;51.910;8.352;2024-01-15T01:26:36;29.10;;;13.93;;
21128;SDS011;10722;51.910;8.352;2024-01-15T01:29:21;31.83;;;15.13;;
21128;SDS011;10722;51.910;8.352;2024-01-15T01:32:06;32.43;;;14.93;;
21128;SDS011;10722;51.910;8.352;2024-01-15T01:34:51;34.57;;;16.87;;
21128;SDS011;10722;51.910;8.352;2024-01-15T01:37:36;33.87;;;16.00;;
21128;SDS011;10722;51.910;8.352;2024-01-15T01:40:21;33.23;;;15.37;;
21128;SDS011;10722;51.910;8.352;2024-01-15T01:43:06;34.10;;;14.87;;
21128;SDS011;10722;51.910;8.352;2024-01-15T01:45:55;32.90;;;15.00;;
21128;SDS011;10722;51.910;8.352;2024-01-15T01:48:41;31.40;;;15.47;;
21128;SDS011;10722;51.910;8.352;2024-01-15T01:51:27;29.27;;;14.93;;
21128;SDS011;10722;51.910;8.352;2024-01-15T01:54:12;32.17;;;14.87;;
21128;SDS011;10722;51.910;8.352;2024-01-15T01:56:57;34.70;;;15.77;;
21128;SDS011;10722;51.910;8.352;2024-01-15T01:59:42;34.97;;;16.30;;
21128;SDS011;10722;51.910;8.352;2024-01-15T02:02:27;33.47;;;14.40;;
21128;SDS011;10722;51.910;8.352;2024-01-15T02:05:12;29.97;;;13.03;;
21128;SDS011;10722;51.910;8.352;2024-01-15T02:08:02;36.03;;;15.03;;
21128;SDS011;10722;51.910;8.352;2024-01-15T02:10:48;31.47;;;14.80;;
21128;SDS011;10722;51.910;8.352;2024-01-15T02:13:33;31.03;;;13.97;;
21128;SDS011;10722;51.910;8.352;2024-01-15T02:16:18;32.93;;;15.40;;
21128;SDS011;10722;51.910;8.352;2024-01-15T02:19:03;30.07;;;13.07;;
21128;SDS011;10722;51.910;8.352;2024-01-15T02:21:48;31.27;;;12.57;;
21128;SDS011;10722;51.910;8.352;2024-01-15T02:24:33;32.50;;;12.40;;
21128;SDS011;10722;51.910;8.352;2024-01-15T02:27:18;33.20;;;13.67;;
21128;SDS011;10722;51.910;8.352;2024-01-15T02:30:04;33.13;;;14.00;;
21128;SDS011;10722;51.910;8.352;2024-01-15T02:32:50;33.60;;;13.63;;
21128;SDS011;10722;51.910;8.352;2024-01-15T02:35:36;30.23;;;13.50;;
21128;SDS011;10722;51.910;8.352;2024-01-15T02:38:21;36.50;;;14.07;;
21128;SDS011;10722;51.910;8.352;2024-01-15T02:41:06;34.40;;;13.83;;
21128;SDS011;10722;51.910;8.352;2024-01-15T02:43:51;37.97;;;15.50;;
21128;SDS011;10722;51.910;8.352;2024-01-15T02:46:36;34.97;;;15.67;;
21128;SDS011;10722;51.910;8.352;2024-01-15T02:49:21;32.27;;;12.20;;
21128;SDS011;10722;51.910;8.352;2024-01-15T02:52:06;35.47;;;14.43;;
21128;SDS011;10722;51.910;8.352;2024-01-15T02:54:51;36.90;;;13.73;;
21128;SDS011;10722;51.910;8.352;2024-01-15T02:57:36;34.80;;;15.57;;
21128;SDS011;10722;51.910;8.352;2024-01-15T03:00:21;33.83;;;15.90;;
21128;SDS011;10722;51.910;8.352;2024-01-15T03:03:07;34.67;;;14.70;;
21128;SDS011;10722;51.910;8.352;2024-01-15T03:05:52;37.77;;;15.60;;
21128;SDS011;10722;51.910;8.352;2024-01-15T03:08:37;35.30;;;14.50;;
21128;SDS011;10722;51.910;8.352;2024-01-15T03:11:22;35.87;;;15.37;;
21128;SDS011;10722;51.910;8.352;2024-01-15T03:14:07;37.43;;;14.47;;
21128;SDS011;10722;51.910;8.352;2024-01-15T03:16:52;33.37;;;14.07;;
21128;SDS011;10722;51.910;8.352;2024-01-15T03:19:37;38.47;;;14.63;;
21128;SDS011;10722;51.910;8.352;2024-01-15T03:22:23;31.30;;;14.60;;
21128;SDS011;10722;51.910;8.352;2024-01-15T03:25:08;32.20;;;14.03;;
21128;SDS011;10722;51.910;8.352;2024-01-15T03:27:52;40.50;;;14.40;;
21128;SDS011;10722;51.910;8.352;2024-01-15T03:30:37;40.43;;;14.93;;
21128;SDS011;10722;51.910;8.352;2024-01-15T03:33:23;35.70;;;15.23;;
21128;SDS011;10722;51.910;8.352;2024-01-15T03:36:08;36.03;;;15.10;;
21128;SDS011;10722;51.910;8.352;2024-01-15T03:38:54;37.23;;;13.50;;
21128;SDS011;10722;51.910;8.352;2024-01-15T03:41:39;36.57;;;14.83;;
21128;SDS011;10722;51.910;8.352;2024-01-15T03:44:24;34.73;;;12.97;;
21128;SDS011;10722;51.910;8.352;2024-01-15T03:47:09;33.83;;;12.97;;
21128;SDS011;10722;51.910;8.352;2024-01-15T03:49:54;33.90;;;13.90;;
21128;SDS011;10722;51.910;8.352;2024-01-15T03:52:38;27.97;;;11.37;;
21128;SDS011;10722;51.910;8.352;2024-01-15T03:55:23;32.33;;;12.03;;
21128;SDS011;10722;51.910;8.352;2024-01-15T03:58:09;29.70;;;12.47;;
21128;SDS011;10722;51.910;8.352;2024-01-15T04:00:54;31.73;;;12.63;;
21128;SDS011;10722;51.910;8.352;2024-01-15T04:03:39;36.77;;;14.13;;
21128;SDS011;10722;51.910;8.352;2024-01-15T04:06:24;32.30;;;14.57;;
21128;SDS011;10722;51.910;8.352;2024-01-15T04:09:09;31.53;;;13.50;;
21128;SDS011;10722;51.910;8.352;2024-01-15T04:11:56;35.47;;;12.87;;
21128;SDS011;10722;51.910;8.352;2024-01-15T04:14:41;37.23;;;13.57;;
21128;SDS011;10722;51.910;8.352;2024-01-15T04:17:26;33.97;;;13.57;;
21128;SDS011;10722;51.910;8.352;2024-01-15T04:20:12;31.97;;;13.53;;
21128;SDS011;10722;51.910;8.352;2024-01-15T04:22:57;28.93;;;11.70;;
21128;SDS011;10722;51.910;8.352;2024-01-15T04:25:42;27.33;;;12.33;;
21128;SDS011;10722;51.910;8.352;2024-01-15T04:28:27;31.33;;;12.47;;
21128;SDS011;10722;51.910;8.352;2024-01-15T04:31:20;36.87;;;13.47;;
21128;SDS011;10722;51.910;8.352;2024-01-15T04:34:07;32.27;;;12.17;;
21128;SDS011;10722;51.910;8.352;2024-01-15T04:36:53;32.13;;;12.40;;
21128;SDS011;10722;51.910;8.352;2024-01-15T04:39:38;33.97;;;12.90;;
21128;SDS011;10722;51.910;8.352;2024-01-15T04:42:23;34.57;;;13.57;;
21128;SDS011;10722;51.910;8.352;2024-01-15T04:45:08;36.10;;;14.00;;
21128;SDS011;10722;51.910;8.352;2024-01-15T04:47:54;31.87;;;13.73;;
21128;SDS011;10722;51.910;8.352;2024-01-15T04:50:39;36.87;;;15.10;;
21128;SDS011;10722;51.910;8.352;2024-01-15T04:53:24;36.83;;;16.37;;
21128;SDS011;10722;51.910;8.352;2024-01-15T04:56:09;34.27;;;14.13;;
21128;SDS011;10722;51.910;8.352;2024-01-15T04:58:54;31.00;;;12.30;;
21128;SDS011;10722;51.910;8.352;2024-01-15T05:01:39;33.70;;;15.07;;
21128;SDS011;10722;51.910;8.352;2024-01-15T05:04:25;36.47;;;13.57;;
21128;SDS011;10722;51.910;8.352;2024-01-15T05:07:10;52.43;;;14.63;;
21128;SDS011;10722;51.910;8.352;2024-01-15T05:09:55;36.70;;;13.73;;
21128;SDS011;10722;51.910;8.352;2024-01-15T05:12:40;31.83;;;13.23;;
21128;SDS011;10722;51.910;8.352;2024-01-15T05:15:25;32.17;;;13.30;;
21128;SDS011;10722;51.910;8.352;2024-01-15T05:18:10;35.80;;;14.37;;
21128;SDS011;10722;51.910;8.352;2024-01-15T05:20:55;33.67;;;14.23;;
21128;SDS011;10722;51.910;8.352;2024-01-15T05:23:40;31.13;;;13.40;;
21128;SDS011;10722;51.910;8.352;2024-01-15T05:26:25;36.13;;;13.73;;
21128;SDS011;10722;51.910;8.352;2024-01-15T05:29:10;31.03;;;13.30;;
21128;SDS011;10722;51.910;8.352;2024-01-15T05:31:55;32.13;;;12.63;;
21128;SDS011;10722;51.910;8.352;2024-01-15T05:34:45;32.37;;;12.50;;
21128;SDS011;10722;51.910;8.352;2024-01-15T05:37:31;31.70;;;11.47;;
21128;SDS011;10722;51.910;8.352;2024-01-15T05:40:16;31.40;;;12.50;;
21128;SDS011;10722;51.910;8.352;2024-01-15T05:43:01;34.73;;;14.43;;
21128;SDS011;10722;51.910;8.352;2024-01-15T05:45:46;33.30;;;15.47;;
21128;SDS011;10722;51.910;8.352;2024-01-15T05:48:31;34.83;;;15.33;;
21128;SDS011;10722;51.910;8.352;2024-01-15T05:51:17;30.07;;;14.07;;
21128;SDS011;10722;51.910;8.352;2024-01-15T05:54:02;37.47;;;17.33;;
21128;SDS011;10722;51.910;8.352;2024-01-15T05:56:47;39.17;;;16.73;;
21128;SDS011;10722;51.910;8.352;2024-01-15T05:59:32;38.20;;;16.93;;
21128;SDS011;10722;51.910;8.352;2024-01-15T06:02:17;39.80;;;18.67;;
21128;SDS011;10722;51.910;8.352;2024-01-15T06:05:02;33.93;;;15.20;;
21128;SDS011;10722;51.910;8.352;2024-01-15T06:07:48;39.53;;;18.07;;
21128;SDS011;10722;51.910;8.352;2024-01-15T06:10:33;42.47;;;18.87;;
21128;SDS011;10722;51.910;8.352;2024-01-15T06:13:17;39.50;;;18.37;;
21128;SDS011;10722;51.910;8.352;2024-01-15T06:16:02;43.07;;;18.67;;
21128;SDS011;10722;51.910;8.352;2024-01-15T06:18:56;40.03;;;16.30;;
21128;SDS011;10722;51.910;8.352;2024-01-15T06:21:42;43.37;;;19.17;;
21128;SDS011;10722;51.910;8.352;2024-01-15T06:24:27;34.30;;;15.13;;
21128;SDS011;10722;51.910;8.352;2024-01-15T06:27:13;37.27;;;16.40;;
21128;SDS011;10722;51.910;8.352;2024-01-15T06:29:58;42.83;;;17.70;;
21128;SDS011;10722;51.910;8.352;2024-01-15T06:32:43;31.83;;;14.77;;
21128;SDS011;10722;51.910;8.352;2024-01-15T06:35:28;38.87;;;16.90;;
21128;SDS011;10722;51.910;8.352;2024-01-15T06:38:13;32.73;;;14.80;;
21128;SDS011;10722;51.910;8.352;2024-01-15T06:40:58;33.03;;;15.23;;
21128;SDS011;10722;51.910;8.352;2024-01-15T06:43:43;41.03;;;15.20;;
21128;SDS011;10722;51.910;8.352;2024-01-15T06:46:28;37.80;;;15.07;;
21128;SDS011;10722;51.910;8.352;2024-01-15T06:49:13;37.93;;;14.93;;
21128;SDS011;10722;51.910;8.352;2024-01-15T06:51:58;29.80;;;13.50;;
21128;SDS011;10722;51.910;8.352;2024-01-15T06:54:44;29.77;;;14.07;;
21128;SDS011;10722;51.910;8.352;2024-01-15T06:57:28;35.90;;;17.50;;
21128;SDS011;10722;51.910;8.352;2024-01-15T07:00:14;27.37;;;11.13;;
21128;SDS011;10722;51.910;8.352;2024-01-15T07:03:00;35.07;;;12.10;;
21128;SDS011;10722;51.910;8.352;2024-01-15T07:05:45;26.90;;;10.63;;
21128;SDS011;10722;51.910;8.352;2024-01-15T07:08:30;29.40;;;11.33;;
21128;SDS011;10722;51.910;8.352;2024-01-15T07:11:15;31.83;;;11.10;;
21128;SDS011;10722;51.910;8.352;2024-01-15T07:14:00;32.67;;;11.93;;
21128;SDS011;10722;51.910;8.352;2024-01-15T07:16:45;26.97;;;10.70;;
21128;SDS011;10722;51.910;8.352;2024-01-15T07:19:32;24.03;;;9.87;;
21128;SDS011;10722;51.910;8.352;2024-01-15T07:22:18;21.77;;;9.20;;
21128;SDS011;10722;51.910;8.352;2024-01-15T07:25:03;27.47;;;10.00;;
21128;SDS011;10722;51.910;8.352;2024-01-15T07:27:49;25.70;;;10.03;;
21128;SDS011;10722;51.910;8.352;2024-01-15T07:30:34;29.67;;;9.77;;
21128;SDS011;10722;51.910;8.352;2024-01-15T07:33:20;26.33;;;9.60;;
21128;SDS011;10722;51.910;8.352;2024-01-15T07:36:05;24.07;;;9.83;;
21128;SDS011;10722;51.910;8.352;2024-01-15T07:38:50;26.03;;;9.83;;
21128;SDS011;10722;51.910;8.352;2024-01-15T07:41:35;22.17;;;9.20;;
21128;SDS011;10722;51.910;8.352;2024-01-15T07:44:20;24.80;;;9.63;;
21128;SDS011;10722;51.910;8.352;2024-01-15T07:47:05;25.50;;;10.33;;
21128;SDS011;10722;51.910;8.352;2024-01-15T07:49:50;29.13;;;12.07;;
21128;SDS011;10722;51.910;8.352;2024-01-15T07:52:36;141.80;;;66.90;;
21128;SDS011;10722;51.910;8.352;2024-01-15T07:55:21;31.90;;;13.53;;
21128;SDS011;10722;51.910;8.352;2024-01-15T07:58:06;33.10;;;13.37;;
21128;SDS011;10722;51.910;8.352;2024-01-15T08:01:00;28.60;;;12.33;;
21128;SDS011;10722;51.910;8.352;2024-01-15T08:03:46;28.37;;;10.77;;
21128;SDS011;10722;51.910;8.352;2024-01-15T08:06:31;28.30;;;11.77;;
21128;SDS011;10722;51.910;8.352;2024-01-15T08:09:16;24.83;;;10.87;;
21128;SDS011;10722;51.910;8.352;2024-01-15T08:12:01;27.77;;;12.53;;
21128;SDS011;10722;51.910;8.352;2024-01-15T08:14:47;26.17;;;12.00;;
21128;SDS011;10722;51.910;8.352;2024-01-15T08:17:31;25.63;;;12.23;;
21128;SDS011;10722;51.910;8.352;2024-01-15T08:20:17;24.90;;;11.73;;
21128;SDS011;10722;51.910;8.352;2024-01-15T08:23:03;26.53;;;12.03;;
21128;SDS011;10722;51.910;8.352;2024-01-15T08:25:48;24.40;;;12.13;;
21128;SDS011;10722;51.910;8.352;2024-01-15T08:28:33;24.23;;;12.40;;
21128;SDS011;10722;51.910;8.352;2024-01-15T08:31:20;25.93;;;11.20;;
21128;SDS011;10722;51.910;8.352;2024-01-15T08:34:05;24.57;;;11.87;;
21128;SDS011;10722;51.910;8.352;2024-01-15T08:36:50;26.23;;;12.60;;
21128;SDS011;10722;51.910;8.352;2024-01-15T08:39:36;28.77;;;12.13;;
21128;SDS011;10722;51.910;8.352;2024-01-15T08:42:21;30.23;;;12.40;;
21128;SDS011;10722;51.910;8.352;2024-01-15T08:45:06;27.13;;;12.57;;
21128;SDS011;10722;51.910;8.352;2024-01-15T08:47:51;31.60;;;13.03;;
21128;SDS011;10722;51.910;8.352;2024-01-15T08:50:36;32.70;;;13.20;;
21128;SDS011;10722;51.910;8.352;2024-01-15T08:53:21;28.13;;;12.73;;
21128;SDS011;10722;51.910;8.352;2024-01-15T08:56:06;29.70;;;13.10;;
21128;SDS011;10722;51.910;8.352;2024-01-15T08:58:51;29.27;;;13.17;;
21128;SDS011;10722;51.910;8.352;2024-01-15T09:01:36;28.57;;;12.97;;
21128;SDS011;10722;51.910;8.352;2024-01-15T09:04:20;27.83;;;14.47;;
21128;SDS011;10722;51.910;8.352;2024-01-15T09:07:07;30.23;;;11.53;;
21128;SDS011;10722;51.910;8.352;2024-01-15T09:09:52;28.30;;;12.93;;
21128;SDS011;10722;51.910;8.352;2024-01-15T09:12:38;32.30;;;12.43;;
21128;SDS011;10722;51.910;8.352;2024-01-15T09:15:23;33.13;;;12.67;;
21128;SDS011;10722;51.910;8.352;2024-01-15T09:18:08;27.00;;;13.73;;
21128;SDS011;10722;51.910;8.352;2024-01-15T09:20:53;25.27;;;12.40;;
21128;SDS011;10722;51.910;8.352;2024-01-15T09:23:38;23.87;;;10.63;;
21128;SDS011;10722;51.910;8.352;2024-01-15T09:26:23;24.07;;;10.83;;
21128;SDS011;10722;51.910;8.352;2024-01-15T09:29:08;28.33;;;12.13;;
21128;SDS011;10722;51.910;8.352;2024-01-15T09:31:53;30.00;;;11.27;;
21128;SDS011;10722;51.910;8.352;2024-01-15T09:34:39;24.90;;;10.80;;
21128;SDS011;10722;51.910;8.352;2024-01-15T09:37:24;24.13;;;10.30;;
21128;SDS011;10722;51.910;8.352;2024-01-15T09:40:30;21.93;;;10.00;;
21128;SDS011;10722;51.910;8.352;2024-01-15T09:43:16;24.67;;;9.73;;
21128;SDS011;10722;51.910;8.352;2024-01-15T09:46:02;26.43;;;9.60;;
21128;SDS011;10722;51.910;8.352;2024-01-15T09:48:47;21.00;;;8.87;;
21128;SDS011;10722;51.910;8.352;2024-01-15T09:51:32;25.40;;;9.07;;
21128;SDS011;10722;51.910;8.352;2024-01-15T09:54:18;20.67;;;8.33;;
21128;SDS011;10722;51.910;8.352;2024-01-15T09:57:03;18.53;;;8.07;;
21128;SDS011;10722;51.910;8.352;2024-01-15T09:59:48;43.50;;;20.57;;
21128;SDS011;10722;51.910;8.352;2024-01-15T10:02:34;19.67;;;7.83;;
21128;SDS011;10722;51.910;8.352;2024-01-15T10:05:20;18.73;;;7.30;;
21128;SDS011;10722;51.910;8.352;2024-01-15T10:08:05;18.87;;;7.33;;
21128;SDS011;10722;51.910;8.352;2024-01-15T10:10:50;16.50;;;6.93;;
21128;SDS011;10722;51.910;8.352;2024-01-15T10:13:36;16.77;;;6.83;;
21128;SDS011;10722;51.910;8.352;2024-01-15T10:16:28;18.33;;;6.57;;
21128;SDS011;10722;51.910;8.352;2024-01-15T10:19:13;17.97;;;6.40;;
21128;SDS011;10722;51.910;8.352;2024-01-15T10:21:58;22.60;;;6.50;;
21128;SDS011;10722;51.910;8.352;2024-01-15T10:24:44;22.27;;;6.20;;
21128;SDS011;10722;51.910;8.352;2024-01-15T10:27:29;16.93;;;6.23;;
21128;SDS011;10722;51.910;8.352;2024-01-15T10:30:14;17.70;;;5.73;;
21128;SDS011;10722;51.910;8.352;2024-01-15T10:33:00;18.13;;;6.27;;
21128;SDS011;10722;51.910;8.352;2024-01-15T10:35:47;25.10;;;6.53;;
21128;SDS011;10722;51.910;8.352;2024-01-15T10:38:32;19.63;;;5.87;;
21128;SDS011;10722;51.910;8.352;2024-01-15T10:41:17;15.57;;;5.50;;
21128;SDS011;10722;51.910;8.352;2024-01-15T10:44:01;16.90;;;5.57;;
21128;SDS011;10722;51.910;8.352;2024-01-15T10:46:47;16.03;;;5.63;;
21128;SDS011;10722;51.910;8.352;2024-01-15T10:49:32;16.37;;;6.10;;
21128;SDS011;10722;51.910;8.352;2024-01-15T10:52:18;15.57;;;6.23;;
21128;SDS011;10722;51.910;8.352;2024-01-15T10:55:03;17.30;;;6.50;;
21128;SDS011;10722;51.910;8.352;2024-01-15T10:57:57;16.73;;;6.30;;
21128;SDS011;10722;51.910;8.352;2024-01-15T11:00:42;16.47;;;6.40;;
21128;SDS011;10722;51.910;8.352;2024-01-15T11:03:28;18.43;;;6.30;;
21128;SDS011;10722;51.910;8.352;2024-01-15T11:06:17;16.53;;;6.00;;
21128;SDS011;10722;51.910;8.352;2024-01-15T11:09:03;18.27;;;5.60;;
21128;SDS011;10722;51.910;8.352;2024-01-15T11:11:50;14.47;;;4.97;;
21128;SDS011;10722;51.910;8.352;2024-01-15T11:14:41;13.70;;;4.97;;
21128;SDS011;10722;51.910;8.352;2024-01-15T11:17:57;18.57;;;5.43;;
21128;SDS011;10722;51.910;8.352;2024-01-15T11:23:59;15.07;;;5.53;;
21128;SDS011;10722;51.910;8.352;2024-01-15T11:26:46;17.03;;;5.23;;
21128;SDS011;10722;51.910;8.352;2024-01-15T11:29:35;15.23;;;4.80;;
21128;SDS011;10722;51.910;8.352;2024-01-15T11:32:21;13.80;;;5.00;;
21128;SDS011;10722;51.910;8.352;2024-01-15T11:35:19;16.10;;;5.07;;
21128;SDS011;10722;51.910;8.352;2024-01-15T11:38:04;19.27;;;5.43;;
21128;SDS011;10722;51.910;8.352;2024-01-15T11:40:49;15.77;;;5.23;;
21128;SDS011;10722;51.910;8.352;2024-01-15T11:43:34;17.97;;;4.63;;
21128;SDS011;10722;51.910;8.352;2024-01-15T11:46:19;14.60;;;4.70;;
21128;SDS011;10722;51.910;8.352;2024-01-15T11:49:04;17.87;;;4.93;;
21128;SDS011;10722;51.910;8.352;2024-01-15T11:51:53;15.00;;;4.50;;
21128;SDS011;10722;51.910;8.352;2024-01-15T11:54:40;13.73;;;4.20;;
21128;SDS011;10722;51.910;8.352;2024-01-15T11:57:51;15.60;;;4.30;;
21128;SDS011;10722;51.910;8.352;2024-01-15T12:00:42;13.50;;;3.67;;
21128;SDS011;10722;51.910;8.352;2024-01-15T12:03:31;16.67;;;3.77;;
21128;SDS011;10722;51.910;8.352;2024-01-15T12:06:17;15.17;;;3.90;;
21128;SDS011;10722;51.910;8.352;2024-01-15T12:09:06;12.53;;;3.67;;
21128;SDS011;10722;51.910;8.352;2024-01-15T12:11:54;15.43;;;3.80;;
21128;SDS011;10722;51.910;8.352;2024-01-15T12:15:04;14.20;;;3.50;;
21128;SDS011;10722;51.910;8.352;2024-01-15T12:17:49;15.17;;;5.40;;
21128;SDS011;10722;51.910;8.352;2024-01-15T12:20:35;13.67;;;3.20;;
21128;SDS011;10722;51.910;8.352;2024-01-15T12:23:21;12.53;;;3.50;;
21128;SDS011;10722;51.910;8.352;2024-01-15T12:26:06;18.50;;;3.77;;
21128;SDS011;10722;51.910;8.352;2024-01-15T12:28:51;10.10;;;3.30;;
21128;SDS011;10722;51.910;8.352;2024-01-15T12:31:38;14.63;;;3.47;;
21128;SDS011;10722;51.910;8.352;2024-01-15T12:34:24;13.17;;;3.47;;
21128;SDS011;10722;51.910;8.352;2024-01-15T12:37:14;11.50;;;3.30;;
21128;SDS011;10722;51.910;8.352;2024-01-15T12:39:59;15.93;;;3.70;;
21128;SDS011;10722;51.910;8.352;2024-01-15T12:42:44;13.40;;;3.43;;
21128;SDS011;10722;51.910;8.352;2024-01-15T12:45:29;11.00;;;3.37;;
21128;SDS011;10722;51.910;8.352;2024-01-15T12:48:14;15.00;;;3.50;;
21128;SDS011;10722;51.910;8.352;2024-01-15T12:51:00;12.07;;;3.47;;
21128;SDS011;10722;51.910;8.352;2024-01-15T12:53:45;14.03;;;3.27;;
21128;SDS011;10722;51.910;8.352;2024-01-15T12:56:30;15.13;;;3.77;;
21128;SDS011;10722;51.910;8.352;2024-01-15T12:59:15;16.53;;;3.63;;
21128;SDS011;10722;51.910;8.352;2024-01-15T13:02:00;11.50;;;3.07;;
21128;SDS011;10722;51.910;8.352;2024-01-15T13:04:45;12.50;;;3.40;;
21128;SDS011;10722;51.910;8.352;2024-01-15T13:07:30;12.93;;;3.27;;
21128;SDS011;10722;51.910;8.352;2024-01-15T13:10:15;12.17;;;3.77;;
21128;SDS011;10722;51.910;8.352;2024-01-15T13:13:00;13.13;;;3.70;;
21128;SDS011;10722;51.910;8.352;2024-01-15T13:15:45;13.13;;;3.80;;
21128;SDS011;10722;51.910;8.352;2024-01-15T13:18:30;18.70;;;3.97;;
21128;SDS011;10722;51.910;8.352;2024-01-15T13:21:16;11.97;;;3.50;;
21128;SDS011;10722;51.910;8.352;2024-01-15T13:24:00;13.23;;;3.80;;
21128;SDS011;10722;51.910;8.352;2024-01-15T13:26:45;16.57;;;4.10;;
21128;SDS011;10722;51.910;8.352;2024-01-15T13:29:30;13.67;;;3.93;;
21128;SDS011;10722;51.910;8.352;2024-01-15T13:32:17;14.93;;;3.57;;
21128;SDS011;10722;51.910;8.352;2024-01-15T13:35:08;11.90;;;3.57;;
21128;SDS011;10722;51.910;8.352;2024-01-15T13:37:53;16.87;;;4.17;;
21128;SDS011;10722;51.910;8.352;2024-01-15T13:40:38;12.00;;;3.37;;
21128;SDS011;10722;51.910;8.352;2024-01-15T13:43:23;15.57;;;3.70;;
21128;SDS011;10722;51.910;8.352;2024-01-15T13:46:08;14.13;;;3.77;;
21128;SDS011;10722;51.910;8.352;2024-01-15T13:48:53;14.90;;;4.40;;
21128;SDS011;10722;51.910;8.352;2024-01-15T13:51:38;17.23;;;4.87;;
21128;SDS011;10722;51.910;8.352;2024-01-15T13:54:23;18.90;;;5.37;;
21128;SDS011;10722;51.910;8.352;2024-01-15T13:57:21;14.83;;;4.50;;
21128;SDS011;10722;51.910;8.352;2024-01-15T14:00:06;14.07;;;4.37;;
21128;SDS011;10722;51.910;8.352;2024-01-15T14:02:51;16.37;;;4.13;;
21128;SDS011;10722;51.910;8.352;2024-01-15T14:05:36;20.07;;;4.80;;
21128;SDS011;10722;51.910;8.352;2024-01-15T14:08:21;14.97;;;4.40;;
21128;SDS011;10722;51.910;8.352;2024-01-15T14:11:06;16.93;;;4.17;;
21128;SDS011;10722;51.910;8.352;2024-01-15T14:13:51;13.03;;;4.00;;
21128;SDS011;10722;51.910;8.352;2024-01-15T14:16:36;14.83;;;4.07;;
21128;SDS011;10722;51.910;8.352;2024-01-15T14:19:21;15.53;;;4.47;;
21128;SDS011;10722;51.910;8.352;2024-01-15T14:22:07;15.30;;;3.93;;
21128;SDS011;10722;51.910;8.352;2024-01-15T14:24:51;12.03;;;3.60;;
21128;SDS011;10722;51.910;8.352;2024-01-15T14:27:37;13.90;;;4.20;;
21128;SDS011;10722;51.910;8.352;2024-01-15T14:30:22;13.93;;;4.27;;
21128;SDS011;10722;51.910;8.352;2024-01-15T14:33:07;14.60;;;4.50;;
21128;SDS011;10722;51.910;8.352;2024-01-15T14:35:53;12.63;;;3.97;;
21128;SDS011;10722;51.910;8.352;2024-01-15T14:38:38;13.53;;;4.00;;
21128;SDS011;10722;51.910;8.352;2024-01-15T14:41:23;14.13;;;4.20;;
21128;SDS011;10722;51.910;8.352;2024-01-15T14:44:08;13.17;;;4.20;;
21128;SDS011;10722;51.910;8.352;2024-01-15T14:46:54;26.63;;;11.07;;
21128;SDS011;10722;51.910;8.352;2024-01-15T14:49:39;15.90;;;4.43;;
21128;SDS011;10722;51.910;8.352;2024-01-15T14:52:24;14.83;;;4.50;;
21128;SDS011;10722;51.910;8.352;2024-01-15T14:55:09;15.97;;;3.90;;
21128;SDS011;10722;51.910;8.352;2024-01-15T14:57:55;13.03;;;3.37;;
21128;SDS011;10722;51.910;8.352;2024-01-15T15:00:40;8.77;;;2.83;;
21128;SDS011;10722;51.910;8.352;2024-01-15T15:03:26;10.27;;;2.50;;
21128;SDS011;10722;51.910;8.352;2024-01-15T15:06:11;11.60;;;2.67;;
21128;SDS011;10722;51.910;8.352;2024-01-15T15:08:56;8.83;;;2.47;;
21128;SDS011;10722;51.910;8.352;2024-01-15T15:11:43;10.80;;;2.63;;
21128;SDS011;10722;51.910;8.352;2024-01-15T15:14:28;10.80;;;2.30;;
21128;SDS011;10722;51.910;8.352;2024-01-15T15:17:13;7.00;;;1.90;;
21128;SDS011;10722;51.910;8.352;2024-01-15T15:19:58;9.73;;;1.80;;
21128;SDS011;10722;51.910;8.352;2024-01-15T15:22:43;8.03;;;1.70;;
21128;SDS011;10722;51.910;8.352;2024-01-15T15:25:28;10.07;;;1.90;;
21128;SDS011;10722;51.910;8.352;2024-01-15T15:28:13;6.33;;;1.60;;
21128;SDS011;10722;51.910;8.352;2024-01-15T15:30:58;8.67;;;1.80;;
21128;SDS011;10722;51.910;8.352;2024-01-15T15:33:43;7.93;;;1.90;;
21128;SDS011;10722;51.910;8.352;2024-01-15T15:36:29;9.50;;;1.80;;
21128;SDS011;10722;51.910;8.352;2024-01-15T15:39:14;6.30;;;1.40;;
21128;SDS011;10722;51.910;8.352;2024-01-15T15:41:58;9.43;;;1.87;;
21128;SDS011;10722;51.910;8.352;2024-01-15T15:44:43;8.80;;;2.27;;
21128;SDS011;10722;51.910;8.352;2024-01-15T15:47:28;8.20;;;2.30;;
21128;SDS011;10722;51.910;8.352;2024-01-15T15:50:14;10.47;;;2.30;;
21128;SDS011;10722;51.910;8.352;2024-01-15T15:52:59;9.53;;;2.63;;
21128;SDS011;10722;51.910;8.352;2024-01-15T15:55:44;11.00;;;2.90;;
21128;SDS011;10722;51.910;8.352;2024-01-15T15:58:29;11.50;;;2.63;;
21128;SDS011;10722;51.910;8.352;2024-01-15T16:01:14;11.17;;;2.40;;
21128;SDS011;10722;51.910;8.352;2024-01-15T16:04:00;8.97;;;2.60;;
21128;SDS011;10722;51.910;8.352;2024-01-15T16:06:45;11.30;;;3.00;;
21128;SDS011;10722;51.910;8.352;2024-01-15T16:09:31;17.97;;;5.27;;
21128;SDS011;10722;51.910;8.352;2024-01-15T16:12:16;13.90;;;3.10;;
21128;SDS011;10722;51.910;8.352;2024-01-15T16:15:01;13.07;;;3.10;;
21128;SDS011;10722;51.910;8.352;2024-01-15T16:17:47;12.00;;;3.00;;
21128;SDS011;10722;51.910;8.352;2024-01-15T16:20:53;12.10;;;2.90;;